You are listening to:
SBPA Gnd/Twr/App/Center - Porto Alegre, Brazil

SBPA 291100Z 28012KT 9999 FEW020 BKN030 23/19 Q1002

If stream doesn't start automatically press the play button
If stream stops then reload player then press play